Time;durP1;ratioP1;P1;durP2;ratioP2;P2;SDS_P1;SDS_P2;PMS_P1;PMS_P2;Temp;Humidity;BMP_temperature;BMP_pressure;BME280_temperature;BME280_humidity;BME280_pressure;Samples;Min_cycle;Max_cycle;Signal;HPM_P1;HPM_P2
2022/02/12 00:00:55;;;;;;;35.13;12.48;;;;;;;-1.70;89.54;103164.00;5007788;28;20033;-74
2022/02/12 00:03:20;;;;;;;40.38;13.63;;;;;;;-1.73;89.69;103150.47;5024867;28;20422;-75
2022/02/12 00:05:46;;;;;;;30.30;13.20;;;;;;;-1.74;89.91;103152.16;5045011;28;20071;-74
2022/02/12 00:08:11;;;;;;;38.15;14.18;;;;;;;-1.78;90.03;103156.44;5025223;28;20040;-74
2022/02/12 00:10:36;;;;;;;31.58;14.40;;;;;;;-1.80;90.19;103153.09;5046225;28;20392;-75
2022/02/12 00:13:10;;;;;;;38.28;14.25;;;;;;;-1.81;90.29;103150.56;5005969;28;20032;-75
2022/02/12 00:15:35;;;;;;;32.13;13.23;;;;;;;-1.83;90.43;103154.81;5038279;28;20135;-75
2022/02/12 00:18:01;;;;;;;36.58;13.55;;;;;;;-1.83;90.07;103159.91;5031888;28;20335;-75
2022/02/12 00:20:26;;;;;;;37.25;13.88;;;;;;;-1.86;90.57;103157.44;5047945;28;20035;-74
2022/02/12 00:22:52;;;;;;;37.33;13.32;;;;;;;-1.88;90.24;103147.25;5022575;28;20407;-74
2022/02/12 00:25:17;;;;;;;36.55;12.73;;;;;;;-1.88;90.52;103143.88;5043254;28;20032;-75
2022/02/12 00:27:42;;;;;;;36.47;13.45;;;;;;;-1.90;90.54;103140.50;5045311;28;20493;-75
2022/02/12 00:30:09;;;;;;;33.88;12.32;;;;;;;-1.92;90.60;103143.06;5046321;28;20037;-75
2022/02/12 00:32:34;;;;;;;38.50;12.18;;;;;;;-1.93;90.60;103148.19;5028125;28;20041;-75
2022/02/12 00:35:00;;;;;;;35.97;12.82;;;;;;;-1.95;90.41;103143.09;5029392;28;20040;-75
2022/02/12 00:37:28;;;;;;;33.63;11.27;;;;;;;-1.94;90.44;103144.78;5008835;28;20037;-75
2022/02/12 00:39:54;;;;;;;32.60;11.90;;;;;;;-1.94;90.33;103146.47;5026494;28;20047;-75
2022/02/12 00:42:19;;;;;;;34.42;12.13;;;;;;;-1.95;90.59;103145.66;5008207;28;20036;-75
2022/02/12 00:44:45;;;;;;;34.30;11.07;;;;;;;-1.94;90.73;103138.84;5028619;28;20044;-75
2022/02/12 00:47:10;;;;;;;37.47;11.25;;;;;;;-1.96;90.73;103138.84;5024991;28;20052;-75
2022/02/12 00:49:36;;;;;;;22.83;9.45;;;;;;;-1.97;90.73;103138.03;5042772;28;20036;-75
2022/02/12 00:52:03;;;;;;;31.35;11.23;;;;;;;-1.99;90.53;103137.22;5009358;28;20033;-75
2022/02/12 00:54:28;;;;;;;28.55;8.88;;;;;;;-2.00;90.36;103130.44;5025900;28;20037;-75
2022/02/12 00:56:54;;;;;;;31.63;10.20;;;;;;;-1.99;90.57;103136.38;5010107;28;20048;-74
2022/02/12 00:59:19;;;;;;;27.40;10.10;;;;;;;-2.01;90.87;103125.38;5010606;28;20041;-75
2022/02/12 01:01:45;;;;;;;26.02;9.57;;;;;;;-2.05;90.61;103131.38;5008230;28;20029;-76
2022/02/12 01:04:10;;;;;;;28.58;10.25;;;;;;;-2.10;90.58;103118.69;5042325;28;20032;-75
2022/02/12 01:06:36;;;;;;;32.75;11.35;;;;;;;-2.13;90.78;103120.41;5025342;28;20037;-75
2022/02/12 01:09:02;;;;;;;35.13;10.32;;;;;;;-2.16;90.95;103121.31;5008658;28;20075;-75
2022/02/12 01:11:28;;;;;;;33.95;10.57;;;;;;;-2.19;90.59;103121.31;5024896;28;20047;-75
2022/02/12 01:13:53;;;;;;;33.47;9.88;;;;;;;-2.22;91.11;103113.75;5042618;28;20036;-75
2022/02/12 01:16:19;;;;;;;31.90;10.40;;;;;;;-2.25;90.94;103117.16;5010759;28;20394;-75
2022/02/12 01:18:45;;;;;;;34.80;10.88;;;;;;;-2.25;90.77;103123.94;5024550;28;20263;-75
2022/02/12 01:21:11;;;;;;;30.67;10.00;;;;;;;-2.33;90.74;103121.47;5027825;28;20281;-75
2022/02/12 01:23:36;;;;;;;29.55;9.88;;;;;;;-2.38;91.19;103118.97;5021773;28;20041;-75
2022/02/12 01:26:04;;;;;;;27.48;9.20;;;;;;;-2.43;91.26;103105.50;5041969;28;20036;-75
2022/02/12 01:28:29;;;;;;;28.80;10.60;;;;;;;-2.46;91.57;103118.22;5025088;28;20031;-75
2022/02/12 01:30:55;;;;;;;35.58;10.52;;;;;;;-2.47;91.80;103113.16;5023643;28;20037;-75
2022/02/12 01:33:21;;;;;;;24.85;9.68;;;;;;;-2.49;92.06;103114.84;5021933;28;20484;-75
2022/02/12 01:35:46;;;;;;;28.98;10.82;;;;;;;-2.51;92.11;103106.41;5007191;28;20533;-77
2022/02/12 01:38:12;;;;;;;30.90;10.20;;;;;;;-2.53;92.21;103108.97;5024847;28;20037;-75
2022/02/12 01:40:37;;;;;;;33.70;10.13;;;;;;;-2.57;92.39;103105.59;5043710;28;20366;-75
2022/02/12 01:43:06;;;;;;;30.65;11.45;;;;;;;-2.57;92.45;103109.84;5027892;28;20498;-75
2022/02/12 01:45:32;;;;;;;40.13;10.98;;;;;;;-2.57;92.54;103105.59;5043176;28;20513;-75
2022/02/12 01:47:58;;;;;;;28.98;9.50;;;;;;;-2.61;92.44;103109.03;5026172;28;20033;-75
2022/02/12 01:50:24;;;;;;;30.05;10.68;;;;;;;-2.62;92.88;103102.28;5025746;28;20060;-75
2022/02/12 01:52:50;;;;;;;34.58;10.00;;;;;;;-2.62;92.79;103094.66;5023552;28;20103;-75
2022/02/12 01:55:17;;;;;;;32.53;10.25;;;;;;;-2.63;93.11;103090.44;5026271;28;20041;-75
2022/02/12 01:57:42;;;;;;;35.22;9.55;;;;;;;-2.65;93.04;103088.78;5044545;28;20041;-77
2022/02/12 02:00:11;;;;;;;43.90;12.25;;;;;;;-2.68;93.08;103087.09;5024786;28;20033;-75
2022/02/12 02:02:41;;;;;;;41.92;10.93;;;;;;;-2.67;93.33;103082.88;5024206;28;20572;-75
2022/02/12 02:05:11;;;;;;;33.50;10.27;;;;;;;-2.67;93.28;103090.50;5028501;28;20037;-75
2022/02/12 02:07:41;;;;;;;39.13;11.30;;;;;;;-2.66;93.26;103087.91;5026032;28;20037;-75
2022/02/12 02:10:11;;;;;;;34.67;10.57;;;;;;;-2.67;93.21;103082.88;5025825;28;20546;-75
2022/02/12 02:12:37;;;;;;;33.42;9.57;;;;;;;-2.69;92.89;103080.34;5030400;28;20131;-75
2022/02/12 02:15:03;;;;;;;32.30;9.43;;;;;;;-2.71;93.08;103082.06;5013132;28;20029;-74
2022/02/12 02:17:29;;;;;;;28.10;9.25;;;;;;;-2.72;93.38;103070.19;5028311;28;20108;-75
2022/02/12 02:19:57;;;;;;;29.52;8.80;;;;;;;-2.73;93.61;103073.59;5027042;28;20036;-74
2022/02/12 02:22:35;;;;;;;34.65;10.02;;;;;;;-2.73;93.42;103066.00;5028882;28;20349;-75
2022/02/12 02:25:00;;;;;;;29.10;8.90;;;;;;;-2.75;93.60;103063.47;5029954;28;20244;-75
2022/02/12 02:27:30;;;;;;;42.28;9.48;;;;;;;-2.75;93.34;103063.47;5029535;28;20037;-75
2022/02/12 02:29:56;;;;;;;29.05;9.73;;;;;;;-2.74;92.77;103059.22;5028655;28;20563;-75
2022/02/12 02:32:22;;;;;;;32.08;10.43;;;;;;;-2.77;92.71;103062.63;5047159;28;20634;-75
2022/02/12 02:34:54;;;;;;;39.38;10.25;;;;;;;-2.81;93.06;103057.56;5015859;28;20029;-75
2022/02/12 02:37:22;;;;;;;30.08;9.32;;;;;;;-2.85;93.20;103056.75;5041945;28;20126;-75
2022/02/12 02:39:48;;;;;;;36.33;10.30;;;;;;;-2.84;93.39;103062.69;5045518;28;20061;-75
2022/02/12 02:42:14;;;;;;;37.50;8.82;;;;;;;-2.87;93.37;103058.47;5042046;28;20037;-75
2022/02/12 02:44:40;;;;;;;33.05;9.35;;;;;;;-2.88;93.62;103058.47;5028608;28;20020;-75
2022/02/12 02:49:51;;;;;;;39.15;9.55;;;;;;;-2.94;93.46;103046.69;5043990;28;20123;-75
2022/02/12 02:57:45;;;;;;;38.03;8.93;;;;;;;-2.74;93.34;103043.97;5030694;28;20032;-75
2022/02/12 03:00:11;;;;;;;37.58;8.95;;;;;;;-2.68;92.96;103038.00;5031298;28;20045;-75
2022/02/12 03:02:37;;;;;;;35.22;10.73;;;;;;;-2.64;92.76;103035.38;5014947;28;20037;-75
2022/02/12 03:05:04;;;;;;;32.00;9.05;;;;;;;-2.70;92.77;103030.38;5007140;28;20048;-76
2022/02/12 03:07:29;;;;;;;30.50;11.02;;;;;;;-2.73;92.71;103035.50;5019805;28;20067;-75
2022/02/12 03:09:55;;;;;;;37.70;11.10;;;;;;;-2.74;93.05;103033.81;5012718;28;20498;-75
2022/02/12 03:12:20;;;;;;;38.22;10.25;;;;;;;-2.81;93.19;103029.66;5048353;28;20506;-75
2022/02/12 03:14:45;;;;;;;48.85;12.18;;;;;;;-2.81;93.64;103030.47;5032405;28;20544;-75
2022/02/12 03:17:11;;;;;;;40.50;11.95;;;;;;;-2.77;93.85;103024.53;5030193;28;20491;-74
2022/02/12 03:19:36;;;;;;;43.08;11.65;;;;;;;-2.82;93.78;103025.44;5017047;28;20538;-75
2022/02/12 03:22:02;;;;;;;37.30;11.20;;;;;;;-2.77;93.93;103019.47;5029336;28;20542;-75
2022/02/12 03:24:27;;;;;;;56.17;12.60;;;;;;;-2.75;93.84;103029.56;5048103;28;20024;-75
2022/02/12 03:26:53;;;;;;;46.55;12.27;;;;;;;-2.66;93.53;103026.94;5046538;28;20087;-75
2022/02/12 03:29:18;;;;;;;36.83;12.05;;;;;;;-2.75;93.58;103015.19;5027147;28;20344;-74
2022/02/12 03:31:44;;;;;;;30.10;11.60;;;;;;;-2.80;93.85;103014.41;5049695;28;20372;-75
2022/02/12 03:34:09;;;;;;;32.45;11.60;;;;;;;-2.86;94.17;103013.59;5047218;28;20036;-75
2022/02/12 03:36:35;;;;;;;33.15;10.15;;;;;;;-2.90;94.40;103015.34;5027330;28;20037;-75
2022/02/12 03:39:02;;;;;;;35.25;10.48;;;;;;;-2.90;94.24;103015.34;5024492;28;20676;-75
2022/02/12 03:41:27;;;;;;;31.95;10.15;;;;;;;-2.87;93.82;103019.56;5044837;28;20083;-77
2022/02/12 03:43:53;;;;;;;32.25;9.55;;;;;;;-2.89;94.26;103016.19;5045885;28;20041;-77
2022/02/12 03:46:18;;;;;;;32.78;9.57;;;;;;;-2.82;94.09;103012.75;5012972;28;20029;-75
2022/02/12 03:48:44;;;;;;;31.60;10.30;;;;;;;-2.85;94.00;103007.69;5045037;28;20037;-75
2022/02/12 03:51:09;;;;;;;25.85;8.93;;;;;;;-2.90;93.98;103010.28;5009407;28;20033;-74
2022/02/12 03:53:35;;;;;;;31.40;10.55;;;;;;;-2.86;94.14;103014.47;5027789;28;20517;-75
2022/02/12 03:56:00;;;;;;;29.95;9.35;;;;;;;-2.84;94.13;103004.28;5046173;28;20028;-75
2022/02/12 03:58:26;;;;;;;29.55;9.75;;;;;;;-2.85;93.94;103011.06;5044864;28;20059;-75
2022/02/12 04:00:51;;;;;;;39.63;9.82;;;;;;;-2.82;94.07;103000.03;5014242;28;20032;-75
2022/02/12 04:03:17;;;;;;;32.95;8.63;;;;;;;-2.82;94.10;103000.88;5043394;28;20623;-74
2022/02/12 04:05:45;;;;;;;28.80;8.73;;;;;;;-2.91;93.82;102993.34;5025683;28;20107;-77
2022/02/12 04:08:13;;;;;;;24.52;8.95;;;;;;;-2.88;94.20;102989.91;5026589;28;20455;-75
2022/02/12 04:10:40;;;;;;;32.05;9.38;;;;;;;-2.87;94.11;102989.91;5011827;28;20028;-77
2022/02/12 04:13:05;;;;;;;21.33;8.93;;;;;;;-2.85;93.86;102987.34;5040787;28;20071;-77
2022/02/12 04:15:31;;;;;;;33.55;9.27;;;;;;;-2.89;93.99;102983.19;5025687;28;20360;-75
2022/02/12 04:17:57;;;;;;;18.23;7.82;;;;;;;-2.88;94.23;102974.69;5027435;28;20040;-74
2022/02/12 04:20:23;;;;;;;37.22;8.95;;;;;;;-2.84;94.12;102982.28;5025709;28;20435;-74
2022/02/12 04:22:50;;;;;;;30.10;9.23;;;;;;;-2.81;94.26;102976.31;5040154;28;20033;-75
2022/02/12 04:25:17;;;;;;;28.20;7.95;;;;;;;-2.74;94.01;102970.31;5025236;28;20041;-77
2022/02/12 04:27:43;;;;;;;25.52;8.35;;;;;;;-2.86;94.06;102976.38;5026789;28;20043;-75
2022/02/12 04:30:10;;;;;;;24.13;7.63;;;;;;;-2.87;94.32;102974.69;5025805;28;20403;-75
2022/02/12 04:32:36;;;;;;;21.15;8.18;;;;;;;-2.93;94.13;102974.75;5026920;28;20033;-77
2022/02/12 04:35:03;;;;;;;39.75;8.30;;;;;;;-2.88;94.40;102970.47;5007236;28;20041;-75
2022/02/12 04:37:29;;;;;;;33.33;8.27;;;;;;;-2.87;94.39;102976.38;5025761;28;20124;-75
2022/02/12 04:39:55;;;;;;;27.08;8.68;;;;;;;-2.83;94.38;102972.94;5026535;28;20040;-75
2022/02/12 04:42:20;;;;;;;34.33;8.82;;;;;;;-2.80;94.39;102967.84;5026374;28;20029;-75
2022/02/12 04:44:51;;;;;;;31.48;7.63;;;;;;;-2.76;94.52;102977.09;5043716;28;20037;-75
2022/02/12 04:47:17;;;;;;;26.58;7.78;;;;;;;-2.83;94.64;102973.78;5025551;28;20075;-75
2022/02/12 04:49:43;;;;;;;26.65;8.15;;;;;;;-2.88;94.86;102970.47;5011918;28;20581;-75
2022/02/12 04:52:11;;;;;;;37.08;9.60;;;;;;;-2.84;94.72;102969.56;5025813;28;20060;-75
2022/02/12 04:54:37;;;;;;;28.25;8.60;;;;;;;-2.78;94.69;102966.97;5026932;28;20041;-75
2022/02/12 04:57:03;;;;;;;28.58;7.97;;;;;;;-2.72;94.74;102968.59;5024204;28;20095;-77
2022/02/12 04:59:30;;;;;;;29.17;8.60;;;;;;;-2.82;94.21;102961.94;5044884;28;20106;-76
2022/02/12 05:01:55;;;;;;;31.58;8.13;;;;;;;-2.89;94.84;102963.69;5044800;28;20808;-77
2022/02/12 05:04:23;;;;;;;33.63;7.30;;;;;;;-2.83;95.01;102970.41;5025937;28;20037;-75
2022/02/12 05:06:49;;;;;;;23.02;7.53;;;;;;;-2.90;94.79;102961.16;5027682;28;20033;-74
2022/02/12 05:09:15;;;;;;;28.52;7.75;;;;;;;-2.90;95.17;102966.25;5026185;28;20079;-75
2022/02/12 05:11:42;;;;;;;27.33;8.38;;;;;;;-2.94;95.34;102955.28;5043366;28;20047;-74
2022/02/12 05:14:08;;;;;;;26.08;7.32;;;;;;;-2.97;95.41;102955.31;5024659;28;20044;-77
2022/02/12 05:16:34;;;;;;;24.80;8.02;;;;;;;-3.02;95.24;102954.53;5011125;28;20045;-75
2022/02/12 05:19:00;;;;;;;32.13;8.43;;;;;;;-2.92;95.42;102943.41;5023796;28;20653;-75
2022/02/12 05:21:25;;;;;;;34.10;7.70;;;;;;;-2.90;95.35;102951.00;5042943;28;20124;-75
2022/02/12 05:23:51;;;;;;;33.20;7.75;;;;;;;-2.98;95.06;102951.09;5040035;28;20033;-74
2022/02/12 05:26:16;;;;;;;27.00;8.23;;;;;;;-2.95;95.08;102944.28;5040718;28;20380;-75
2022/02/12 05:28:42;;;;;;;22.60;6.70;;;;;;;-3.05;95.25;102942.72;5028703;28;20368;-75
2022/02/12 05:31:09;;;;;;;38.95;8.57;;;;;;;-2.94;94.90;102937.50;5025732;28;20039;-74
2022/02/12 05:33:37;;;;;;;32.60;8.52;;;;;;;-3.00;94.96;102935.88;5032032;28;20044;-75
2022/02/12 05:36:07;;;;;;;28.42;7.32;;;;;;;-2.94;94.91;102925.66;5043528;28;20129;-77
2022/02/12 05:38:34;;;;;;;21.70;7.55;;;;;;;-2.96;95.06;102924.84;5045953;28;20036;-77
2022/02/12 05:40:59;;;;;;;19.55;6.45;;;;;;;-2.98;95.02;102913.84;5044687;28;20076;-76
2022/02/12 05:43:25;;;;;;;32.63;8.23;;;;;;;-3.04;95.39;102919.00;5025043;28;20376;-76
2022/02/12 05:45:50;;;;;;;31.45;6.82;;;;;;;-2.95;95.05;102915.53;5042710;28;20147;-77
2022/02/12 05:48:19;;;;;;;27.55;7.28;;;;;;;-3.01;95.11;102913.91;5033879;28;20045;-77
2022/02/12 05:50:45;;;;;;;29.77;7.32;;;;;;;-3.02;95.12;102907.13;5031528;28;20253;-77
2022/02/12 05:53:11;;;;;;;36.95;8.02;;;;;;;-2.93;95.23;102906.19;5026345;28;20032;-77
2022/02/12 05:55:37;;;;;;;28.35;6.97;;;;;;;-2.99;94.82;102908.81;5023793;28;20042;-77
2022/02/12 05:58:02;;;;;;;20.60;6.72;;;;;;;-3.09;94.91;102895.34;5005831;28;20522;-77
2022/02/12 06:00:28;;;;;;;31.67;7.18;;;;;;;-3.09;95.22;102897.06;5024306;28;20033;-76
2022/02/12 06:02:53;;;;;;;30.15;7.38;;;;;;;-3.13;95.29;102897.09;5006612;28;20492;-76
2022/02/12 06:05:20;;;;;;;16.67;6.40;;;;;;;-3.06;95.32;102900.41;5024525;28;20140;-77
2022/02/12 06:07:46;;;;;;;29.70;7.25;;;;;;;-3.07;94.86;102887.72;5022185;28;20579;-76
2022/02/12 06:10:13;;;;;;;36.45;7.53;;;;;;;-3.06;94.91;102897.03;5025733;28;20426;-77
2022/02/12 06:12:39;;;;;;;17.35;6.88;;;;;;;-3.08;94.34;102903.81;5043083;28;20041;-77
2022/02/12 06:15:05;;;;;;;25.02;8.07;;;;;;;-3.22;94.14;102907.34;5025092;28;20760;-76
2022/02/12 06:17:31;;;;;;;23.58;7.72;;;;;;;-3.30;94.70;102898.13;5020959;28;20036;-77
2022/02/12 06:19:57;;;;;;;35.38;8.80;;;;;;;-3.34;95.29;102900.69;5025961;28;20033;-77
2022/02/12 06:22:26;;;;;;;29.55;6.82;;;;;;;-3.34;95.39;102910.81;5008077;28;20123;-77
2022/02/12 06:24:52;;;;;;;28.42;8.02;;;;;;;-3.34;95.85;102899.84;5025937;28;20028;-77
2022/02/12 06:27:17;;;;;;;29.95;6.78;;;;;;;-3.14;95.37;102897.13;5024376;28;20082;-77
2022/02/12 06:29:43;;;;;;;25.90;7.78;;;;;;;-3.11;95.24;102893.69;5042757;28;20417;-77
2022/02/12 06:32:08;;;;;;;33.25;7.20;;;;;;;-3.18;95.15;102892.94;5010859;28;20102;-76
2022/02/12 06:34:34;;;;;;;25.38;6.88;;;;;;;-3.23;95.15;102889.59;5043305;28;20136;-77
2022/02/12 06:36:59;;;;;;;26.23;7.70;;;;;;;-3.21;94.99;102887.88;5025729;28;20029;-76
2022/02/12 06:39:25;;;;;;;27.25;9.25;;;;;;;-3.17;95.09;102875.13;5009203;28;20487;-77
2022/02/12 06:41:51;;;;;;;24.38;9.30;;;;;;;-3.19;95.28;102874.31;5044197;28;20048;-76
2022/02/12 06:44:16;;;;;;;28.20;9.23;;;;;;;-3.21;95.11;102877.72;5024025;28;20238;-76
2022/02/12 06:46:43;;;;;;;27.80;7.60;;;;;;;-3.09;95.07;102884.34;5044169;28;20390;-76
2022/02/12 06:49:08;;;;;;;24.00;7.70;;;;;;;-3.11;95.14;102879.28;5028256;28;20498;-77
2022/02/12 06:51:34;;;;;;;39.33;8.60;;;;;;;-3.08;95.41;102873.38;5028346;28;20040;-77
2022/02/12 06:53:59;;;;;;;36.42;8.98;;;;;;;-3.17;95.36;102874.28;5027244;28;20241;-77
2022/02/12 06:56:24;;;;;;;24.35;7.40;;;;;;;-3.17;95.56;102876.84;5047339;28;20037;-76
2022/02/12 06:58:50;;;;;;;31.92;7.65;;;;;;;-3.00;95.38;102874.09;5048187;28;20037;-77
2022/02/12 07:01:15;;;;;;;28.02;7.13;;;;;;;-2.96;95.38;102870.66;5046334;28;20041;-77
2022/02/12 07:03:41;;;;;;;29.08;7.97;;;;;;;-2.88;95.30;102885.81;5040647;28;20395;-76
2022/02/12 07:06:06;;;;;;;27.33;6.78;;;;;;;-2.93;95.24;102873.19;5027014;28;20475;-76
2022/02/12 07:08:32;;;;;;;24.38;6.50;;;;;;;-2.91;95.25;102875.72;5028145;28;20039;-76
2022/02/12 07:10:57;;;;;;;25.92;6.90;;;;;;;-2.86;95.21;102866.31;5029192;28;20041;-76
2022/02/12 07:13:23;;;;;;;29.80;7.72;;;;;;;-2.90;95.07;102869.75;5044425;28;20036;-77
2022/02/12 07:15:48;;;;;;;30.08;6.95;;;;;;;-2.87;94.88;102873.09;5045016;28;20048;-77
2022/02/12 07:18:14;;;;;;;34.25;8.43;;;;;;;-2.82;95.02;102870.53;5012417;28;20037;-77
2022/02/12 07:20:39;;;;;;;24.08;7.88;;;;;;;-2.78;94.76;102862.81;5009872;28;20034;-77
2022/02/12 07:23:05;;;;;;;29.50;7.47;;;;;;;-2.79;94.92;102873.00;5026853;28;20029;-77
2022/02/12 07:25:30;;;;;;;31.83;6.90;;;;;;;-2.77;95.02;102877.22;5026707;28;20036;-77
2022/02/12 07:27:57;;;;;;;27.13;7.90;;;;;;;-2.70;94.67;102866.97;5028010;28;20095;-77
2022/02/12 07:30:23;;;;;;;21.42;7.43;;;;;;;-2.58;94.43;102872.75;5045019;28;20395;-75
2022/02/12 07:32:50;;;;;;;33.50;7.00;;;;;;;-2.53;94.26;102876.91;5025327;28;20033;-75
2022/02/12 07:35:16;;;;;;;26.95;7.72;;;;;;;-2.50;94.05;102872.63;5043813;28;20033;-77
2022/02/12 07:37:44;;;;;;;19.13;7.22;;;;;;;-2.42;94.29;102867.44;5028011;28;20111;-76
2022/02/12 07:40:10;;;;;;;27.95;7.63;;;;;;;-2.50;93.97;102875.19;5028316;28;20462;-77
2022/02/12 07:42:37;;;;;;;30.05;7.88;;;;;;;-2.45;94.00;102864.94;5031608;28;20037;-77
2022/02/12 07:45:03;;;;;;;26.98;7.90;;;;;;;-2.39;93.87;102867.41;5047323;28;20044;-77
2022/02/12 07:47:29;;;;;;;38.00;8.70;;;;;;;-2.34;93.73;102860.53;5009709;28;20021;-77
2022/02/12 07:49:54;;;;;;;46.75;13.05;;;;;;;-2.33;93.50;102857.16;5015568;28;20396;-76
2022/02/12 07:52:20;;;;;;;29.00;8.57;;;;;;;-2.31;93.36;102855.44;5045413;28;20072;-77
2022/02/12 07:54:45;;;;;;;32.42;8.70;;;;;;;-2.23;93.31;102858.69;5023210;28;20033;-77
2022/02/12 07:57:11;;;;;;;31.00;8.27;;;;;;;-2.25;93.22;102855.34;5027213;28;20040;-77
2022/02/12 07:59:36;;;;;;;32.75;8.38;;;;;;;-2.19;93.35;102852.69;5027261;28;20033;-77
2022/02/12 08:02:02;;;;;;;29.77;7.93;;;;;;;-2.12;93.43;102845.00;5045559;28;20029;-77
2022/02/12 08:04:28;;;;;;;34.55;9.70;;;;;;;-2.10;93.15;102841.53;5009743;28;20369;-77
2022/02/12 08:09:38;;;;;;;37.75;8.73;;;;;;;-1.93;92.83;102840.44;5046342;28;20033;-77
2022/02/12 08:12:13;;;;;;;35.17;9.23;;;;;;;-1.92;92.56;102840.44;5044652;28;20135;-77
2022/02/12 08:14:42;;;;;;;34.67;10.25;;;;;;;-1.86;92.60;102842.84;5007684;28;20513;-77
2022/02/12 08:17:09;;;;;;;31.35;8.38;;;;;;;-1.85;92.06;102838.59;5044793;28;20067;-77
2022/02/12 08:19:36;;;;;;;29.95;9.68;;;;;;;-1.81;92.23;102840.22;5013791;28;20029;-77
2022/02/12 08:22:01;;;;;;;41.63;10.27;;;;;;;-1.81;92.27;102836.00;5027706;28;20044;-77
2022/02/12 08:24:27;;;;;;;25.55;8.20;;;;;;;-1.70;91.95;102824.78;5052557;28;20044;-76
2022/02/12 08:26:52;;;;;;;25.05;8.32;;;;;;;-1.72;91.84;102834.16;5012728;28;20029;-77
2022/02/12 08:29:17;;;;;;;31.90;8.93;;;;;;;-1.76;92.07;102821.47;5030680;28;20028;-76
2022/02/12 08:31:43;;;;;;;32.45;9.07;;;;;;;-1.52;91.74;102824.47;5046505;28;20044;-77
2022/02/12 08:34:08;;;;;;;34.00;10.18;;;;;;;-1.63;91.64;102819.56;5027170;28;20535;-77
2022/02/12 08:36:34;;;;;;;31.13;9.07;;;;;;;-1.43;90.82;102824.28;5008646;28;20036;-76
2022/02/12 08:38:59;;;;;;;24.35;9.18;;;;;;;-1.37;90.47;102829.25;5012987;28;20407;-77
2022/02/12 08:41:25;;;;;;;28.58;8.15;;;;;;;-1.21;90.01;102818.78;5046509;28;20031;-77
2022/02/12 08:43:50;;;;;;;28.15;7.88;;;;;;;-1.25;89.65;102820.53;5029746;28;20033;-77
2022/02/12 08:46:16;;;;;;;24.02;7.22;;;;;;;-1.04;89.34;102832.00;5029009;28;20442;-76
2022/02/12 08:48:41;;;;;;;33.03;9.00;;;;;;;-1.07;89.39;102824.44;5060624;23;20052;-67
2022/02/12 08:51:08;;;;;;;25.85;8.48;;;;;;;-1.05;88.06;102827.78;5060155;28;20029;-68
2022/02/12 08:53:34;;;;;;;31.95;8.13;;;;;;;-0.95;88.55;102815.69;5043392;28;20076;-68
2022/02/12 08:56:00;;;;;;;80.90;20.95;;;;;;;-0.84;88.46;102811.22;5042363;28;20111;-68
2022/02/12 08:58:26;;;;;;;58.28;16.58;;;;;;;-0.83;88.31;102810.34;5035525;28;20064;-67
2022/02/12 09:00:53;;;;;;;109.43;27.65;;;;;;;-0.77;88.01;102808.53;5025386;28;20036;-68
2022/02/12 09:03:18;;;;;;;183.13;39.88;;;;;;;-0.71;87.38;102814.34;5046295;28;20056;-68
2022/02/12 09:05:44;;;;;;;193.63;37.63;;;;;;;-0.64;87.50;102798.03;5021873;28;20906;-68
2022/02/12 09:08:13;;;;;;;108.70;26.23;;;;;;;-0.61;87.23;102805.59;5031596;28;20727;-68
2022/02/12 09:10:39;;;;;;;150.35;37.25;;;;;;;-0.56;87.17;102800.41;5047083;28;20048;-68
2022/02/12 09:13:05;;;;;;;113.50;27.73;;;;;;;-0.50;86.58;102789.25;5037842;28;20119;-68
2022/02/12 09:15:31;;;;;;;66.72;14.95;;;;;;;-0.12;85.51;102801.06;5022296;28;20036;-68
2022/02/12 09:17:56;;;;;;;55.55;12.48;;;;;;;0.06;84.85;102802.31;5047710;28;20037;-68
2022/02/12 09:20:21;;;;;;;39.42;10.75;;;;;;;0.21;83.84;102790.03;5042693;28;20033;-69
2022/02/12 09:22:48;;;;;;;38.80;10.80;;;;;;;0.31;83.20;102799.13;5036382;28;20028;-69
2022/02/12 09:25:13;;;;;;;30.15;6.97;;;;;;;0.35;82.84;102787.97;5011180;28;20075;-69
2022/02/12 09:27:39;;;;;;;28.85;7.95;;;;;;;0.39;82.64;102780.16;5039475;28;20387;-69
2022/02/12 09:30:06;;;;;;;28.60;6.60;;;;;;;0.29;82.33;102783.88;5021724;28;20037;-69
2022/02/12 09:32:31;;;;;;;21.73;6.50;;;;;;;0.31;82.80;102774.44;5004036;28;20037;-69
2022/02/12 09:34:57;;;;;;;25.80;6.65;;;;;;;0.29;83.28;102777.94;5033962;28;20035;-69
2022/02/12 09:37:23;;;;;;;24.02;5.97;;;;;;;0.31;82.49;102765.97;5026522;28;20584;-69
2022/02/12 09:39:48;;;;;;;21.63;6.22;;;;;;;0.37;82.21;102765.78;5026188;28;20041;-69
2022/02/12 09:42:14;;;;;;;29.02;6.18;;;;;;;0.30;81.91;102757.47;5045265;28;20052;-69
2022/02/12 09:44:42;;;;;;;28.33;7.10;;;;;;;0.37;82.56;102750.47;5049774;28;20041;-69
2022/02/12 09:47:22;;;;;;;26.55;6.15;;;;;;;0.41;81.32;102762.28;5023648;28;20506;-69
2022/02/12 09:49:48;;;;;;;29.35;7.47;;;;;;;0.46;81.90;102752.78;5042471;28;20031;-69
2022/02/12 09:52:17;;;;;;;19.88;6.15;;;;;;;0.54;81.75;102762.78;5026623;28;20493;-69
2022/02/12 09:54:45;;;;;;;21.30;5.70;;;;;;;0.59;81.35;102763.47;5016360;28;20111;-69
2022/02/12 09:57:11;;;;;;;25.70;6.82;;;;;;;0.66;81.69;102754.78;5006013;28;20490;-69
2022/02/12 09:59:36;;;;;;;21.02;7.70;;;;;;;0.65;81.28;102747.16;5012410;28;20115;-69
2022/02/12 10:02:02;;;;;;;15.80;5.22;;;;;;;0.66;81.50;102739.44;5042363;28;20505;-69
2022/02/12 10:04:29;;;;;;;17.98;5.35;;;;;;;0.78;79.58;102733.97;5026102;28;20494;-69
2022/02/12 10:06:54;;;;;;;32.72;6.60;;;;;;;0.87;79.60;102740.53;5026300;28;20037;-69
2022/02/12 10:09:20;;;;;;;20.17;6.97;;;;;;;0.92;80.42;102736.13;5029446;28;20088;-69
2022/02/12 10:11:50;;;;;;;17.10;5.03;;;;;;;0.98;79.07;102727.44;5025197;28;20041;-69
2022/02/12 10:14:19;;;;;;;29.92;6.45;;;;;;;1.07;78.72;102721.19;5050908;28;20032;-68
2022/02/12 10:16:56;;;;;;;21.42;5.50;;;;;;;1.29;77.92;102718.81;5046873;28;20040;-69
2022/02/12 10:19:38;;;;;;;18.90;4.80;;;;;;;1.34;78.13;102716.97;5015073;28;20571;-68
2022/02/12 10:22:09;;;;;;;23.17;4.23;;;;;;;1.38;77.90;102717.69;5026215;28;20041;-69
2022/02/12 10:24:53;;;;;;;24.80;7.53;;;;;;;1.51;78.06;102719.81;5048906;28;20032;-69
2022/02/12 10:27:21;;;;;;;17.75;4.80;;;;;;;1.71;76.39;102718.28;5032364;28;20064;-69
2022/02/12 10:29:47;;;;;;;17.67;5.25;;;;;;;1.75;76.21;102705.38;5028447;28;20425;-68
2022/02/12 10:32:17;;;;;;;20.70;6.40;;;;;;;1.85;73.91;102705.06;5032683;28;20036;-69
2022/02/12 10:34:46;;;;;;;21.77;4.32;;;;;;;1.89;71.89;102688.69;5044647;28;20067;-69
2022/02/12 10:37:14;;;;;;;24.67;5.45;;;;;;;1.87;72.26;102693.03;5044937;28;20426;-68
2022/02/12 10:39:49;;;;;;;16.90;4.15;;;;;;;1.93;72.76;102697.94;5041391;28;20634;-69
2022/02/12 10:42:17;;;;;;;23.02;3.83;;;;;;;1.94;72.61;102684.25;5021228;28;20036;-69
2022/02/12 10:44:44;;;;;;;29.23;5.15;;;;;;;1.99;72.75;102684.09;5012210;28;20041;-69
2022/02/12 10:47:13;;;;;;;18.80;4.40;;;;;;;2.13;72.10;102687.00;5007938;28;20037;-68
2022/02/12 10:49:39;;;;;;;18.58;4.07;;;;;;;2.18;72.56;102687.66;5024404;28;20033;-69
2022/02/12 10:52:05;;;;;;;21.65;3.90;;;;;;;2.28;71.20;102680.47;5051860;28;20702;-69
2022/02/12 10:54:39;;;;;;;21.40;3.92;;;;;;;2.29;71.95;102677.03;5009043;28;20037;-69
2022/02/12 10:57:06;;;;;;;27.02;4.22;;;;;;;2.38;71.29;102673.31;5016868;28;20025;-69
2022/02/12 10:59:33;;;;;;;22.58;4.20;;;;;;;2.49;69.61;102664.31;5045353;28;20060;-68
2022/02/12 11:01:58;;;;;;;15.77;3.92;;;;;;;2.59;70.38;102652.00;5046703;28;20791;-69
2022/02/12 11:04:26;;;;;;;25.63;4.00;;;;;;;2.54;69.94;102643.66;5030752;28;20037;-68
2022/02/12 11:06:51;;;;;;;13.15;3.90;;;;;;;2.55;71.17;102641.94;5014220;28;20033;-68
2022/02/12 11:09:20;;;;;;;22.50;3.65;;;;;;;2.72;69.09;102645.50;5046854;28;20070;-68
2022/02/12 11:11:47;;;;;;;11.35;3.15;;;;;;;2.69;67.96;102635.41;5008620;28;20043;-68
2022/02/12 11:14:15;;;;;;;20.67;4.28;;;;;;;2.80;67.39;102629.00;5052491;28;20048;-68
2022/02/12 11:16:41;;;;;;;15.95;3.60;;;;;;;2.99;66.38;102636.78;5042959;28;20045;-68
2022/02/12 11:19:07;;;;;;;19.70;3.60;;;;;;;3.08;64.79;102626.16;5029318;28;20099;-68
2022/02/12 11:21:37;;;;;;;15.32;2.88;;;;;;;3.25;64.60;102617.78;5039087;28;20037;-68
2022/02/12 11:24:12;;;;;;;15.13;3.40;;;;;;;3.21;63.46;102601.69;5044989;28;20445;-68